Racecast

Payton Max

Virginia Beach Flames (VA) · 5 · Compare head to head

Athlete rating 117.7 2025 TF season
Best race 120.6 TF
Races 74
Seasons 2 2025 — 2026
Rating scale ?
Speed rating — all races

Track & Field

TF speed rating

2026 TF

Virginia Beach Flames (VA) · Grade 5

Date Meet Event Result Place Rating Difficulty PR/SR Flags
2026-05-30 Va Beach Flames Invite 200m 31.27 19th · 3rd on team -0.023
2026-05-30 Va Beach Flames Invite 400m 1:16 13th · 2nd on team -0.023
2026-05-24 HR Hurricanes CAT 5 Invite 200m 31.25 11th · 2nd on team -0.035 ★PR SR
2026-05-24 HR Hurricanes CAT 5 Invite 400m 1:12.76 6th · 2nd on team -0.035
2026-05-16 2026 Technique Relays 100m 15.06 13th · 2nd on team -0.035 ★PR SR
2026-05-16 2026 Technique Relays 400m 1:13.73 8th · 2nd on team -0.035
2026-05-09 VA "Legends" T & F Youth Invite 400m 1:12.76 10th · 1st on team -0.033
2026-05-09 VA "Legends" T & F Youth Invite 200m 31.72 22nd · 2nd on team -0.033 PR SR
2026-05-09 VA "Legends" T & F Youth Invite 100m 16.04 35th · 3rd on team -0.033
2026-05-02 The DMV Track and Field Classic 400m 1:14.87 2nd · 1st on team -0.021
2026-05-02 The DMV Track and Field Classic 200m 33.13 4th · 2nd on team -0.021
2026-05-02 The DMV Track and Field Classic 100m 15.74 17th · 3rd on team -0.021 PR SR
2026-04-26 Virginia Pride Spring Kick-Off 400m 1:17.5 15th · 1st on team -0.029
2026-04-26 Virginia Pride Spring Kick-Off 200m 32.54 20th · 2nd on team -0.029
2026-04-26 Virginia Pride Spring Kick-Off 100m 15.83 19th · 2nd on team -0.029 PR SR
2026-02-28 BWSP Queens and Kings Championships 55m 8.86 23rd · 3rd on team -0.024 ★PR SR
2026-02-28 BWSP Queens and Kings Championships 400m 1:14.52 11th · 1st on team -0.024
2026-02-28 BWSP Queens and Kings Championships 200m 32.09 18th · 3rd on team -0.024 PR SR
2026-02-22 3rd Annual HRH Winter Storm Classic 55m 8.93 33rd · 3rd on team -0.024
2026-02-22 3rd Annual HRH Winter Storm Classic 400m 1:13.44 5th · 1st on team -0.024
2026-01-31 BWSP Queens and Kings - Meet 3 400m 1:15.24 7th · 1st on team -0.024
2026-01-31 BWSP Queens and Kings - Meet 3 200m 32.42 14th · 2nd on team -0.024
2026-01-31 BWSP Queens and Kings - Meet 3 55m 9.02 29th · 3rd on team -0.024
2026-01-25 Virginia Beach Flames Invitational 200m 32.69 2nd · 2nd on team -0.035
2026-01-25 Virginia Beach Flames Invitational 400m 1:12.24 1st · 1st on team -0.035 ★PR SR
2026-01-25 Virginia Beach Flames Invitational 60m 9.76 21st · 10th on team -0.035 ★PR SR
2026-01-17 BWSP Queens and Kings - Meet 2 400m 1:13.44 3rd · 1st on team -0.024 PR SR
2026-01-17 BWSP Queens and Kings - Meet 2 200m 32.28 17th · 2nd on team -0.024 PR SR
2026-01-17 BWSP Queens and Kings - Meet 2 55m 8.88 28th · 4th on team -0.024 PR SR
2026-01-03 BWSP Queens and Kings - Meet 1 400m 1:17.67 10th · 1st on team -0.024 SR
2026-01-03 BWSP Queens and Kings - Meet 1 55m 9.26 29th · 1st on team -0.024
2026-01-03 BWSP Queens and Kings - Meet 1 200m 33.15 13th · 1st on team -0.024 SR
2025-12-20 2025 Howard White Holiday Track Classic 200m 33.61 17th · 1st on team -0.024 SR
2025-12-20 2025 Howard White Holiday Track Classic 400m 1:18.08 12th · 1st on team -0.024 SR
2025-12-20 2025 Howard White Holiday Track Classic 55m 9.19 26th · 1st on team -0.024 PR SR
2025-12-06 Coach Miami Presents the Virginia Beast Invitational 200m 33.64 12th · 3rd on team -0.035 SR
2025-12-06 Coach Miami Presents the Virginia Beast Invitational 400m 1:19.26 10th · 2nd on team -0.035 SR

2025 TF 117.2

Virginia Beach Flames (VA) · Grade 4

Date Meet Event Result Place Rating Difficulty PR/SR Flags
2025-07-12 Cannonball Cooper Invite javelin DNS -0.027
2025-07-05 F.I.A. Freedom Invitational 800m 3:04.3 1st · 1st on team 114.9 -0.021
2025-07-05 F.I.A. Freedom Invitational 400m 1:15.45 3rd · 1st on team -0.021
2025-06-07 Darius Dixon Invite 400m 1:16.39 5th · 1st on team -0.030
2025-06-07 Darius Dixon Invite 800m 2:53.73 2nd · 1st on team 120.6 -0.030 ★PR ★R SR RSR
2025-05-31 Va Beach Flames Invite javelin 20' 4" -0.023
2025-05-31 Va Beach Flames Invite 800m 3:01.52 5th · 2nd on team 116.7 -0.023
2025-05-31 Va Beach Flames Invite 400m 1:17.94 16th · 2nd on team -0.023
2025-05-25 HR Hurricanes CAT 5 Invite javelin 28' 1" -0.035
2025-05-25 HR Hurricanes CAT 5 Invite 800m 2:57.94 4th · 2nd on team 117.0 -0.035 PR R SR RSR
2025-05-25 HR Hurricanes CAT 5 Invite 400m 1:14.35 9th · 1st on team -0.035 PR SR
2025-05-10 Legends Invitational hosted by Eastend Lightning javelin 28-11 -0.029
2025-05-10 Legends Invitational hosted by Eastend Lightning 800m 2:59.61 4th · 2nd on team 116.7 -0.029 PR R SR RSR
2025-05-10 Legends Invitational hosted by Eastend Lightning 400m 1:16.62 18th · 1st on team -0.029 PR SR
2025-05-04 Queen Harrison Youth Invite javelin 21' 5" -0.033
2025-05-04 Queen Harrison Youth Invite 400m 1:17.79 11th · 1st on team -0.033 PR SR
2025-05-04 Queen Harrison Youth Invite 200m 32.97 11th · 2nd on team -0.033 PR SR
2025-04-27 TRACK 757 Classic javelin DNS -0.029
2025-04-27 TRACK 757 Classic 400m 1:35.01 32nd · 2nd on team -0.029
2025-03-07 AAU Indoor National Championships 60m 10.04 67th · 1st on team -0.035 PR SR
2025-03-07 AAU Indoor National Championships 400m 1:23.03 37th · 2nd on team -0.035
2025-03-07 AAU Indoor National Championships 200m 34.06 71st · 2nd on team -0.035
2025-02-22 BWSP Queens and Kings Championships 55m 9.24 26th · 9th on team -0.014
2025-02-22 BWSP Queens and Kings Championships 200m 35.12 24th · 5th on team -0.014
2025-02-22 BWSP Queens and Kings Championships 400m 1:23.59 17th · 3rd on team -0.014
2025-02-16 HRH Winter Storm Classic 400m 1:23.21 6th · 2nd on team -0.014
2025-02-16 HRH Winter Storm Classic 55m 9.22 20th · 7th on team -0.014 PR SR
2025-02-16 HRH Winter Storm Classic 200m 34.33 12th · 4th on team -0.014
2025-02-02 Track757 Invite 200m 34.62 35th · 3rd on team -0.035
2025-02-02 Track757 Invite 60m 10.16 53rd · 7th on team -0.035 PR SR
2025-02-02 Track757 Invite 400m 1:20.24 17th · 2nd on team -0.035 PR SR
2025-01-18 BWSP Queens and Kings - Meet 2 200m 33.91 24th · 3rd on team -0.014 PR SR
2025-01-18 BWSP Queens and Kings - Meet 2 400m 1:22.71 19th · 3rd on team -0.014 PR SR
2025-01-18 BWSP Queens and Kings - Meet 2 55m 9.27 39th · 9th on team -0.014 PR SR
2025-01-04 BWSP Queens and Kings - Meet 1 200m 35.01 18th · 6th on team -0.024 PR SR
2025-01-04 BWSP Queens and Kings - Meet 1 55m 9.5 38th · 13th on team -0.024 PR SR
2025-01-04 BWSP Queens and Kings - Meet 1 400m 1:23.63 16th · 3rd on team -0.024 PR SR